Time;durP1;ratioP1;P1;durP2;ratioP2;P2;SDS_P1;SDS_P2;PMS_P1;PMS_P2;Temp;Humidity;BMP_temperature;BMP_pressure;BME280_temperature;BME280_humidity;BME280_pressure;Samples;Min_cycle;Max_cycle;Signal;HPM_P1;HPM_P2
2022/07/22 00:01:32;;;;;;;11.68;1.65;;;;;;;28.92;36.28;102301.44;5094569;28;20031;-77
2022/07/22 00:03:58;;;;;;;4.22;2.08;;;;;;;29.17;36.72;102294.44;5094365;28;20027;-77
2022/07/22 00:06:24;;;;;;;6.03;1.60;;;;;;;29.12;36.35;102291.16;5093473;28;20027;-77
2022/07/22 00:08:50;;;;;;;5.88;1.73;;;;;;;29.33;36.50;102294.28;5094168;28;20019;-77
2022/07/22 00:11:15;;;;;;;5.40;1.20;;;;;;;28.99;36.10;102301.00;5094356;28;20027;-77
2022/07/22 00:13:40;;;;;;;5.25;1.40;;;;;;;28.77;36.86;102299.75;5093643;28;20062;-77
2022/07/22 00:16:06;;;;;;;6.47;1.40;;;;;;;29.01;37.25;102293.72;5094189;28;20443;-77
2022/07/22 00:18:32;;;;;;;9.45;1.58;;;;;;;28.47;37.56;102287.25;5093973;28;20073;-77
2022/07/22 00:20:57;;;;;;;6.40;1.50;;;;;;;28.59;37.88;102294.53;5111707;28;20493;-77
2022/07/22 00:23:23;;;;;;;6.57;1.50;;;;;;;28.58;37.11;102284.75;5112349;28;20063;-77
2022/07/22 00:25:48;;;;;;;5.00;1.33;;;;;;;28.55;37.82;102286.75;5094187;28;20139;-79
2022/07/22 00:28:13;;;;;;;7.38;1.80;;;;;;;28.87;37.20;102286.56;5093515;28;20233;-77
2022/07/22 00:30:39;;;;;;;5.70;1.65;;;;;;;28.91;36.79;102278.16;5112583;28;20035;-77
2022/07/22 00:33:04;;;;;;;5.57;2.65;;;;;;;28.77;37.64;102283.59;5093748;28;20046;-77
2022/07/22 00:35:30;;;;;;;7.22;2.05;;;;;;;29.14;37.28;102277.59;5093470;28;20034;-77
2022/07/22 00:37:55;;;;;;;9.07;2.90;;;;;;;29.09;37.02;102281.47;5093906;28;20495;-77
2022/07/22 00:40:20;;;;;;;7.65;2.05;;;;;;;29.23;36.18;102275.16;5094114;28;20062;-77
2022/07/22 00:42:46;;;;;;;4.57;1.70;;;;;;;28.38;37.91;102271.69;5092966;28;20065;-77
2022/07/22 00:45:11;;;;;;;6.88;1.85;;;;;;;28.94;37.44;102271.72;5093782;28;20027;-77
2022/07/22 00:47:38;;;;;;;7.50;1.48;;;;;;;29.15;36.78;102280.19;5113010;28;20072;-77
2022/07/22 00:50:04;;;;;;;2.45;1.15;;;;;;;29.01;37.27;102272.19;5097129;28;20491;-77
2022/07/22 00:52:31;;;;;;;8.68;1.67;;;;;;;29.15;37.37;102269.44;5097592;28;20027;-77
2022/07/22 00:54:58;;;;;;;8.70;1.65;;;;;;;29.03;37.17;102264.84;5097737;28;20036;-77
2022/07/22 00:57:23;;;;;;;5.13;1.67;;;;;;;29.15;37.15;102266.72;5115388;28;20045;-77
2022/07/22 00:59:49;;;;;;;9.90;2.20;;;;;;;29.03;37.49;102270.25;5116187;28;20378;-77
2022/07/22 01:02:15;;;;;;;6.55;1.60;;;;;;;29.19;37.18;102276.34;5096714;28;20152;-77
2022/07/22 01:04:40;;;;;;;5.82;1.70;;;;;;;28.47;38.04;102268.44;5097658;28;20088;-77
2022/07/22 01:07:06;;;;;;;6.55;1.45;;;;;;;29.10;36.92;102272.44;5097684;28;20527;-77
2022/07/22 01:09:31;;;;;;;6.50;1.40;;;;;;;29.20;37.26;102266.44;5096755;28;20474;-77
2022/07/22 01:11:56;;;;;;;5.38;1.33;;;;;;;29.41;36.47;102270.38;5097202;28;20463;-77
2022/07/22 01:14:22;;;;;;;4.75;1.40;;;;;;;29.17;36.53;102266.63;5097436;28;20395;-77
2022/07/22 01:16:47;;;;;;;8.50;1.63;;;;;;;29.16;36.60;102265.78;5114947;28;20110;-77
2022/07/22 01:19:12;;;;;;;10.32;1.52;;;;;;;29.32;36.66;102262.97;5097361;28;20019;-77
2022/07/22 01:21:38;;;;;;;3.38;1.35;;;;;;;29.13;37.09;102263.28;5115490;28;20023;-77
2022/07/22 01:24:05;;;;;;;5.35;1.95;;;;;;;29.35;36.31;102264.59;5096579;28;20020;-77
2022/07/22 01:26:30;;;;;;;8.05;1.98;;;;;;;29.48;36.14;102267.31;5097324;28;20080;-77
2022/07/22 01:28:56;;;;;;;12.48;1.85;;;;;;;29.59;36.30;102257.53;5097443;28;20023;-77
2022/07/22 01:31:21;;;;;;;4.57;1.70;;;;;;;29.49;36.06;102266.34;5096245;28;20468;-77
2022/07/22 01:33:47;;;;;;;5.18;1.95;;;;;;;29.56;35.78;102268.50;5097154;28;20031;-77
2022/07/22 01:36:12;;;;;;;5.85;1.92;;;;;;;29.37;35.86;102265.34;5096950;28;20054;-77
2022/07/22 01:38:38;;;;;;;5.82;1.88;;;;;;;29.72;35.51;102256.69;5114688;28;20469;-77
2022/07/22 01:41:04;;;;;;;10.00;1.67;;;;;;;29.61;35.75;102260.97;5096863;28;20066;-77
2022/07/22 01:43:30;;;;;;;4.88;1.65;;;;;;;29.09;36.77;102261.78;5096987;28;20024;-77
2022/07/22 01:45:55;;;;;;;6.85;1.40;;;;;;;29.12;36.74;102261.56;5096131;28;20027;-77
2022/07/22 01:48:22;;;;;;;6.05;1.50;;;;;;;29.14;37.28;102261.47;5096900;28;20486;-77
2022/07/22 01:50:48;;;;;;;9.07;2.13;;;;;;;29.11;36.61;102251.75;5096913;28;20560;-77
2022/07/22 01:53:14;;;;;;;5.70;1.45;;;;;;;28.82;37.66;102256.38;5114462;28;20080;-77
2022/07/22 01:55:40;;;;;;;10.55;2.80;;;;;;;29.19;36.49;102254.78;5096397;28;20128;-77
2022/07/22 01:58:06;;;;;;;7.15;1.83;;;;;;;29.17;37.06;102256.75;5114891;28;20034;-77
2022/07/22 02:00:32;;;;;;;7.10;1.90;;;;;;;29.53;36.24;102249.84;5094504;28;20023;-77
2022/07/22 02:02:58;;;;;;;7.50;1.95;;;;;;;29.26;36.66;102247.22;5114837;28;20016;-77
2022/07/22 02:05:24;;;;;;;7.20;1.20;;;;;;;29.18;36.75;102247.72;5096325;28;20387;-77
2022/07/22 02:07:49;;;;;;;3.72;1.48;;;;;;;29.40;35.98;102248.97;5114263;28;20023;-77
2022/07/22 02:10:14;;;;;;;6.40;1.92;;;;;;;29.44;36.25;102245.97;5114657;28;20456;-77
2022/07/22 02:12:40;;;;;;;6.50;1.70;;;;;;;28.15;38.19;102241.78;5095707;28;20423;-77
2022/07/22 02:15:06;;;;;;;7.95;1.63;;;;;;;29.24;36.84;102247.31;5096261;28;20029;-77
2022/07/22 02:17:35;;;;;;;7.40;2.00;;;;;;;29.22;36.74;102243.84;5114326;28;20016;-77
2022/07/22 02:20:02;;;;;;;5.10;1.92;;;;;;;29.14;36.78;102243.50;5114022;28;20034;-77
2022/07/22 02:22:27;;;;;;;6.35;1.73;;;;;;;28.82;37.33;102242.94;5096202;28;20030;-77
2022/07/22 02:24:52;;;;;;;4.43;1.55;;;;;;;29.12;36.87;102248.09;5096217;28;20475;-77
2022/07/22 02:27:18;;;;;;;7.10;1.75;;;;;;;28.80;37.08;102244.84;5113452;28;20023;-77
2022/07/22 02:29:44;;;;;;;9.27;1.70;;;;;;;29.26;36.77;102244.50;5096057;28;20019;-77
2022/07/22 02:32:09;;;;;;;5.55;1.70;;;;;;;28.41;38.10;102241.91;5096155;28;20115;-77
2022/07/22 02:34:34;;;;;;;10.80;2.22;;;;;;;28.73;37.71;102239.88;5095160;28;20030;-77
2022/07/22 02:37:00;;;;;;;8.85;2.75;;;;;;;29.01;36.84;102234.50;5095733;28;20030;-77
2022/07/22 02:39:25;;;;;;;6.25;1.60;;;;;;;29.31;36.81;102238.84;5114184;28;20110;-77
2022/07/22 02:41:50;;;;;;;5.53;1.52;;;;;;;29.05;37.27;102238.72;5095085;28;20043;-77
2022/07/22 02:44:16;;;;;;;4.03;1.42;;;;;;;29.32;37.13;102232.47;5095424;28;20027;-77
2022/07/22 02:46:42;;;;;;;3.40;1.27;;;;;;;29.27;37.32;102235.47;5113898;28;20027;-77
2022/07/22 02:49:07;;;;;;;7.00;1.98;;;;;;;29.23;36.81;102234.78;5113244;28;20390;-76
2022/07/22 02:51:32;;;;;;;3.78;1.65;;;;;;;29.38;36.83;102227.53;5095717;28;20495;-77
2022/07/22 02:53:58;;;;;;;5.72;1.63;;;;;;;28.81;37.03;102225.94;5095465;28;20058;-77
2022/07/22 02:56:23;;;;;;;4.82;1.60;;;;;;;29.10;37.50;102232.06;5094560;28;20037;-77
2022/07/22 02:58:51;;;;;;;3.45;1.30;;;;;;;29.48;36.66;102221.53;5095206;28;20072;-77
2022/07/22 03:01:18;;;;;;;10.15;1.65;;;;;;;28.85;37.66;102230.16;5095597;28;20015;-77
2022/07/22 03:03:44;;;;;;;6.95;1.75;;;;;;;29.40;36.53;102224.72;5094481;28;20023;-77
2022/07/22 03:06:09;;;;;;;3.83;1.58;;;;;;;29.45;37.18;102217.19;5113545;28;20019;-77
2022/07/22 03:08:36;;;;;;;6.75;1.65;;;;;;;29.25;37.54;102227.50;5113416;28;20035;-77
2022/07/22 03:11:01;;;;;;;9.95;1.90;;;;;;;28.91;37.08;102226.19;5094060;28;20020;-77
2022/07/22 03:13:26;;;;;;;5.53;1.58;;;;;;;29.07;36.99;102221.50;5095217;28;20030;-77
2022/07/22 03:15:52;;;;;;;9.25;1.83;;;;;;;28.75;37.98;102219.09;5094303;28;20024;-76
2022/07/22 03:18:17;;;;;;;7.57;1.67;;;;;;;28.63;37.51;102227.09;5094901;28;20038;-77
2022/07/22 03:20:42;;;;;;;8.18;1.88;;;;;;;28.68;38.22;102222.31;5094938;28;20023;-77
2022/07/22 03:23:08;;;;;;;7.70;1.40;;;;;;;28.72;37.40;102219.31;5112577;28;20043;-77
2022/07/22 03:25:34;;;;;;;4.63;1.60;;;;;;;28.22;38.61;102221.59;5094857;28;20551;-77
2022/07/22 03:27:59;;;;;;;6.35;1.92;;;;;;;28.70;37.63;102225.75;5095077;28;20598;-77
2022/07/22 03:30:24;;;;;;;6.70;2.45;;;;;;;28.35;38.57;102227.03;5112426;28;20031;-77
2022/07/22 03:32:50;;;;;;;9.85;1.90;;;;;;;28.77;37.49;102227.09;5113158;28;20024;-77
2022/07/22 03:35:16;;;;;;;6.38;2.00;;;;;;;28.29;38.03;102222.06;5094524;28;20026;-77
2022/07/22 03:37:42;;;;;;;4.95;1.80;;;;;;;27.76;39.02;102229.81;5094260;28;20030;-77
2022/07/22 03:40:08;;;;;;;4.65;1.67;;;;;;;28.37;37.97;102224.25;5113050;28;20380;-76
2022/07/22 03:42:33;;;;;;;8.93;1.85;;;;;;;28.69;37.92;102227.59;5112582;28;20054;-77
2022/07/22 03:44:59;;;;;;;3.80;2.00;;;;;;;28.58;37.91;102227.41;5111991;28;20031;-77
2022/07/22 03:47:24;;;;;;;8.88;1.98;;;;;;;28.77;37.76;102229.78;5094772;28;20100;-77
2022/07/22 03:49:50;;;;;;;8.75;3.08;;;;;;;28.58;37.41;102222.88;5094847;28;20066;-78
2022/07/22 03:52:16;;;;;;;8.05;2.65;;;;;;;28.44;37.88;102236.38;5093903;28;20019;-77
2022/07/22 03:54:42;;;;;;;7.25;2.83;;;;;;;28.57;37.87;102231.91;5094709;28;20034;-77
2022/07/22 03:57:08;;;;;;;8.70;1.95;;;;;;;28.49;37.46;102231.53;5112583;28;20020;-77
2022/07/22 03:59:34;;;;;;;5.28;2.42;;;;;;;28.41;37.98;102236.53;5093705;28;20042;-77
2022/07/22 04:01:59;;;;;;;3.67;1.42;;;;;;;27.79;38.46;102234.97;5094450;28;20106;-77
2022/07/22 04:04:25;;;;;;;6.53;2.50;;;;;;;28.17;38.59;102228.22;5094587;28;20098;-77
2022/07/22 04:06:51;;;;;;;7.88;1.95;;;;;;;28.04;38.37;102241.56;5111991;28;20106;-77
2022/07/22 04:09:17;;;;;;;8.02;1.55;;;;;;;28.26;38.49;102233.88;5094575;28;20027;-77
2022/07/22 04:11:42;;;;;;;8.73;2.00;;;;;;;28.07;38.67;102233.31;5094102;28;20020;-77
2022/07/22 04:14:08;;;;;;;8.57;1.52;;;;;;;28.33;38.67;102239.75;5112053;28;20030;-77
2022/07/22 04:16:34;;;;;;;6.82;1.67;;;;;;;28.37;38.80;102230.50;5094263;28;20020;-77
2022/07/22 04:19:01;;;;;;;5.28;1.70;;;;;;;28.83;37.55;102232.06;5094397;28;20028;-77
2022/07/22 04:21:26;;;;;;;7.72;1.58;;;;;;;28.39;38.00;102233.97;5093507;28;20019;-77
2022/07/22 04:23:52;;;;;;;5.05;1.60;;;;;;;28.63;37.67;102232.47;5097148;28;20022;-78
2022/07/22 04:26:17;;;;;;;7.53;2.00;;;;;;;28.80;37.50;102237.66;5097691;28;20028;-77
2022/07/22 04:28:43;;;;;;;4.45;1.63;;;;;;;28.75;37.54;102227.19;5116573;28;20115;-77
2022/07/22 04:31:08;;;;;;;3.53;1.52;;;;;;;28.44;38.88;102236.38;5116608;28;20102;-77
2022/07/22 04:33:33;;;;;;;4.15;1.58;;;;;;;28.51;38.29;102226.94;5097569;28;20051;-77
2022/07/22 04:35:59;;;;;;;7.60;2.55;;;;;;;28.65;38.18;102227.91;5098332;28;20058;-77
2022/07/22 04:38:24;;;;;;;9.48;2.47;;;;;;;28.12;38.88;102215.06;5097896;28;20036;-77
2022/07/22 04:40:49;;;;;;;6.70;1.75;;;;;;;27.77;39.23;102223.47;5115587;28;20055;-77
2022/07/22 04:43:15;;;;;;;4.82;1.77;;;;;;;27.47;39.19;102219.00;5098026;28;20468;-77
2022/07/22 04:45:40;;;;;;;8.13;1.65;;;;;;;27.37;39.79;102223.22;5116093;28;20387;-77
2022/07/22 04:48:06;;;;;;;9.13;1.63;;;;;;;27.83;39.12;102220.41;5115331;28;20024;-77
2022/07/22 04:50:31;;;;;;;6.75;1.60;;;;;;;28.74;37.81;102212.03;5116051;28;20026;-77
2022/07/22 04:52:56;;;;;;;10.02;2.38;;;;;;;28.41;38.32;102221.28;5097970;28;20011;-77
2022/07/22 04:55:22;;;;;;;4.07;1.65;;;;;;;28.16;37.69;102218.44;5115270;28;20428;-77
2022/07/22 04:57:47;;;;;;;7.28;1.50;;;;;;;27.47;38.93;102213.63;5097451;28;20028;-77
2022/07/22 05:00:15;;;;;;;3.67;1.55;;;;;;;28.29;37.97;102216.69;5116055;28;20027;-77
2022/07/22 05:02:41;;;;;;;12.77;2.70;;;;;;;29.06;36.42;102218.94;5096815;28;20102;-77
2022/07/22 05:05:06;;;;;;;15.82;1.80;;;;;;;28.55;37.22;102212.34;5097972;28;20115;-77
2022/07/22 05:07:32;;;;;;;6.95;1.70;;;;;;;28.26;37.85;102217.75;5097598;28;20019;-77
2022/07/22 05:09:57;;;;;;;5.53;1.70;;;;;;;28.74;37.14;102221.91;5115038;28;20469;-77
2022/07/22 05:12:22;;;;;;;7.43;1.85;;;;;;;29.12;36.42;102221.19;5115706;28;20028;-77
2022/07/22 05:14:48;;;;;;;10.88;1.52;;;;;;;29.02;36.63;102214.72;5097381;28;20022;-77
2022/07/22 05:17:13;;;;;;;4.93;1.10;;;;;;;28.84;37.04;102212.28;5096745;28;20479;-77
2022/07/22 05:19:39;;;;;;;2.45;1.13;;;;;;;29.04;36.20;102218.16;5115857;28;20099;-77
2022/07/22 05:22:08;;;;;;;9.00;1.75;;;;;;;29.05;37.01;102219.88;5115845;28;20054;-77
2022/07/22 05:24:34;;;;;;;3.40;1.42;;;;;;;28.68;37.02;102216.94;5114506;28;20027;-77
2022/07/22 05:27:00;;;;;;;4.82;1.48;;;;;;;29.00;36.93;102222.00;5115369;28;20034;-77
2022/07/22 05:29:25;;;;;;;7.72;2.00;;;;;;;28.36;37.35;102222.56;5115108;28;20486;-76
2022/07/22 05:31:50;;;;;;;5.57;1.50;;;;;;;29.14;36.04;102218.38;5097050;28;20020;-77
2022/07/22 05:34:16;;;;;;;4.57;1.25;;;;;;;28.14;38.21;102221.22;5096959;28;20047;-77
2022/07/22 05:36:41;;;;;;;2.80;0.85;;;;;;;29.43;36.08;102216.47;5114609;28;20504;-77
2022/07/22 05:39:07;;;;;;;6.65;1.40;;;;;;;29.49;35.62;102216.03;5115318;28;20038;-77
2022/07/22 05:41:32;;;;;;;4.32;1.33;;;;;;;29.06;35.74;102221.63;5115079;28;20048;-77
2022/07/22 05:43:58;;;;;;;8.35;1.73;;;;;;;29.22;35.91;102222.31;5096314;28;20068;-77
2022/07/22 05:46:23;;;;;;;3.53;1.23;;;;;;;29.31;35.85;102214.59;5096997;28;20027;-77
2022/07/22 05:48:49;;;;;;;2.75;1.20;;;;;;;29.49;35.44;102217.88;5097034;28;20475;-77
2022/07/22 05:51:15;;;;;;;4.78;1.38;;;;;;;30.20;34.53;102221.88;5096240;28;20490;-77
2022/07/22 05:53:41;;;;;;;2.95;1.10;;;;;;;28.98;36.47;102226.66;5115095;28;20077;-77
2022/07/22 05:56:08;;;;;;;3.25;1.20;;;;;;;28.28;36.33;102231.09;5096807;28;20047;-77
2022/07/22 05:58:34;;;;;;;5.63;1.52;;;;;;;29.63;33.95;102220.44;5114269;28;20058;-77
2022/07/22 06:00:59;;;;;;;2.70;0.90;;;;;;;29.96;33.86;102211.00;5096686;28;20078;-77
2022/07/22 06:03:25;;;;;;;4.15;1.55;;;;;;;29.16;35.21;102222.72;5115003;28;20024;-77
2022/07/22 06:05:50;;;;;;;4.40;1.20;;;;;;;28.94;34.52;102223.28;5095900;28;20077;-77
2022/07/22 06:08:15;;;;;;;4.82;1.30;;;;;;;28.07;35.91;102217.19;5096576;28;20054;-77
2022/07/22 06:10:41;;;;;;;7.57;1.77;;;;;;;28.63;34.63;102213.66;5096175;28;20031;-77
2022/07/22 06:13:06;;;;;;;2.83;0.90;;;;;;;28.12;35.92;102208.84;5095755;28;20061;-77
2022/07/22 06:15:32;;;;;;;6.57;1.35;;;;;;;28.08;36.16;102208.16;5096240;28;20126;-78
2022/07/22 06:17:57;;;;;;;3.97;1.10;;;;;;;27.70;35.94;102208.72;5096300;28;20019;-77
2022/07/22 06:20:22;;;;;;;2.00;0.73;;;;;;;28.93;34.25;102206.28;5095677;28;20068;-77
2022/07/22 06:22:48;;;;;;;2.92;1.10;;;;;;;29.92;33.35;102213.06;5114314;28;20490;-77
2022/07/22 06:25:13;;;;;;;6.03;1.33;;;;;;;30.00;33.84;102200.88;5114446;28;20031;-77
2022/07/22 06:27:39;;;;;;;2.63;1.00;;;;;;;28.46;34.35;102217.44;5113843;28;20429;-77
2022/07/22 06:30:05;;;;;;;3.22;0.90;;;;;;;28.89;34.32;102209.28;5096036;28;20032;-77
2022/07/22 06:32:30;;;;;;;6.30;1.25;;;;;;;29.41;33.75;102210.31;5096096;28;20514;-77
2022/07/22 06:34:55;;;;;;;3.58;1.23;;;;;;;28.32;35.14;102224.56;5095121;28;20019;-77
2022/07/22 06:37:21;;;;;;;2.65;0.82;;;;;;;28.13;35.24;102216.78;5096059;28;20030;-77
2022/07/22 06:39:47;;;;;;;5.57;0.93;;;;;;;28.76;34.83;102220.00;5095524;28;20475;-77
2022/07/22 06:42:13;;;;;;;3.42;1.00;;;;;;;28.59;35.17;102224.63;5114105;28;20134;-77
2022/07/22 06:44:38;;;;;;;3.17;0.90;;;;;;;29.35;33.88;102232.28;5095787;28;20110;-77
2022/07/22 06:47:04;;;;;;;5.03;1.75;;;;;;;29.76;33.37;102225.84;5112606;28;20027;-77
2022/07/22 06:49:29;;;;;;;3.60;1.05;;;;;;;29.25;32.63;102222.13;5096031;28;20155;-77
2022/07/22 06:51:54;;;;;;;3.85;0.73;;;;;;;29.15;33.41;102229.06;5114090;28;20038;-77
2022/07/22 06:54:20;;;;;;;4.53;1.10;;;;;;;29.57;33.00;102219.03;5113357;28;20024;-77
2022/07/22 06:56:45;;;;;;;4.20;0.88;;;;;;;28.40;32.95;102229.47;5095503;28;20030;-77
2022/07/22 06:59:10;;;;;;;3.63;0.90;;;;;;;29.58;31.98;102218.09;5095362;28;20078;-77
2022/07/22 07:01:36;;;;;;;7.47;1.42;;;;;;;29.74;31.97;102225.09;5112840;28;20072;-77
2022/07/22 07:04:01;;;;;;;3.63;1.15;;;;;;;29.97;32.40;102222.66;5095211;28;20024;-76
2022/07/22 07:06:27;;;;;;;1.45;0.80;;;;;;;30.89;31.30;102215.94;5095095;28;20055;-77
2022/07/22 07:08:52;;;;;;;7.20;0.93;;;;;;;30.85;31.52;102225.25;5094365;28;20096;-77
2022/07/22 07:11:18;;;;;;;5.25;0.85;;;;;;;30.83;30.95;102213.72;5095436;28;20024;-77
2022/07/22 07:13:43;;;;;;;4.28;1.00;;;;;;;30.07;31.91;102218.31;5095057;28;20027;-77
2022/07/22 07:16:09;;;;;;;3.88;1.13;;;;;;;30.38;31.43;102219.66;5094546;28;20023;-76
2022/07/22 07:18:34;;;;;;;1.95;0.80;;;;;;;30.33;31.53;102223.66;5095085;28;20495;-77
2022/07/22 07:20:59;;;;;;;3.33;1.27;;;;;;;30.11;31.34;102225.22;5095161;28;20023;-77
2022/07/22 07:23:25;;;;;;;1.52;0.65;;;;;;;29.53;32.14;102225.63;5094063;28;20035;-77
2022/07/22 07:25:51;;;;;;;1.98;0.80;;;;;;;29.61;32.18;102220.56;5113347;28;20027;-77
2022/07/22 07:28:17;;;;;;;1.80;0.80;;;;;;;30.18;31.52;102215.69;5113196;28;20026;-76
2022/07/22 07:30:43;;;;;;;3.22;0.70;;;;;;;30.53;30.85;102220.41;5094339;28;20110;-76
2022/07/22 07:33:08;;;;;;;2.80;0.80;;;;;;;29.68;33.12;102217.47;5094631;28;20115;-77
2022/07/22 07:35:34;;;;;;;3.53;0.70;;;;;;;29.84;32.28;102212.72;5094881;28;20019;-77
2022/07/22 07:37:59;;;;;;;3.45;1.02;;;;;;;28.84;33.94;102217.66;5112408;28;20055;-77
2022/07/22 07:40:25;;;;;;;4.53;1.02;;;;;;;28.72;33.70;102221.16;5094953;28;20394;-77
2022/07/22 07:42:50;;;;;;;4.03;1.42;;;;;;;27.68;34.67;102226.72;5094376;28;20077;-77
2022/07/22 07:45:16;;;;;;;6.90;1.33;;;;;;;26.74;37.09;102225.00;5112044;28;20096;-77
2022/07/22 07:47:42;;;;;;;3.22;1.73;;;;;;;27.23;35.90;102232.91;5094430;28;20077;-76
2022/07/22 07:50:08;;;;;;;1.40;0.75;;;;;;;28.11;34.88;102224.09;5112180;28;20030;-76
2022/07/22 07:52:38;;;;;;;5.22;1.50;;;;;;;27.01;37.07;102229.72;5112752;28;20065;-77
2022/07/22 07:55:05;;;;;;;2.17;1.00;;;;;;;27.17;37.36;102222.50;5094573;28;20016;-77
2022/07/22 07:57:30;;;;;;;3.30;1.13;;;;;;;27.42;36.71;102211.25;5092660;28;20118;-76
2022/07/22 07:59:56;;;;;;;3.40;0.75;;;;;;;27.33;36.75;102209.06;5094295;28;20115;-77
2022/07/22 08:02:21;;;;;;;4.65;1.00;;;;;;;26.51;36.97;102211.03;5094395;28;20368;-76
2022/07/22 08:04:46;;;;;;;2.83;0.90;;;;;;;26.81;37.29;102217.50;5093460;28;20022;-76
2022/07/22 08:07:12;;;;;;;4.68;0.88;;;;;;;27.06;36.36;102214.25;5094168;28;20031;-76
2022/07/22 08:09:37;;;;;;;1.90;0.93;;;;;;;28.48;35.47;102205.63;5093984;28;20420;-76
2022/07/22 08:12:04;;;;;;;2.05;0.95;;;;;;;29.29;33.75;102201.22;5111928;28;20027;-77
2022/07/22 08:14:29;;;;;;;5.93;1.17;;;;;;;29.73;32.87;102209.88;5112439;28;20119;-76
2022/07/22 08:16:55;;;;;;;2.15;0.90;;;;;;;30.38;32.12;102206.19;5094074;28;20107;-76
2022/07/22 08:19:20;;;;;;;2.15;1.10;;;;;;;28.82;32.41;102216.88;5093136;28;20471;-77
2022/07/22 08:21:46;;;;;;;3.55;0.80;;;;;;;29.21;32.20;102209.81;5112386;28;20021;-76
2022/07/22 08:24:11;;;;;;;2.38;0.82;;;;;;;31.23;31.02;102208.00;5093841;28;20026;-76
2022/07/22 08:26:37;;;;;;;2.65;0.85;;;;;;;30.26;31.39;102197.13;5093179;28;20031;-76
2022/07/22 08:29:05;;;;;;;5.35;0.93;;;;;;;31.59;29.57;102192.66;5112295;28;20043;-76
2022/07/22 08:31:34;;;;;;;2.72;0.95;;;;;;;33.80;26.78;102192.53;5093956;28;20433;-76
2022/07/22 08:34:00;;;;;;;8.35;1.00;;;;;;;31.38;29.19;102183.50;5092983;28;20028;-75
2022/07/22 08:36:25;;;;;;;5.82;1.30;;;;;;;34.15;28.59;102185.81;5093977;28;20027;-77
2022/07/22 08:38:51;;;;;;;7.47;1.40;;;;;;;33.82;27.42;102190.53;5093606;28;20027;-77
2022/07/22 08:41:17;;;;;;;6.05;1.17;;;;;;;33.43;27.06;102180.34;5111133;28;20042;-76
2022/07/22 08:43:44;;;;;;;5.20;1.25;;;;;;;32.94;27.22;102193.50;5093830;28;20062;-76
2022/07/22 08:46:09;;;;;;;3.78;1.30;;;;;;;32.28;27.86;102194.38;5093821;28;20107;-76
2022/07/22 08:48:38;;;;;;;3.70;1.20;;;;;;;33.47;27.17;102186.34;5093088;28;20459;-76
2022/07/22 08:51:04;;;;;;;2.47;1.05;;;;;;;32.96;26.71;102187.94;5093766;28;20031;-76
2022/07/22 08:53:29;;;;;;;7.28;1.15;;;;;;;32.33;28.33;102187.75;5092990;28;20023;-76
2022/07/22 08:55:55;;;;;;;4.20;1.10;;;;;;;30.43;30.08;102184.25;5093804;28;20035;-77
2022/07/22 08:58:20;;;;;;;4.45;1.00;;;;;;;30.61;30.61;102177.53;5093791;28;20020;-76
2022/07/22 09:00:46;;;;;;;5.55;1.38;;;;;;;30.59;30.09;102173.22;5092908;28;20411;-77
2022/07/22 09:03:23;;;;;;;6.28;1.17;;;;;;;30.81;30.20;102183.28;5093745;28;20031;-76
2022/07/22 09:05:52;;;;;;;4.55;1.25;;;;;;;31.86;28.25;102177.94;5093793;28;20469;-76
2022/07/22 09:08:19;;;;;;;10.38;1.20;;;;;;;33.04;26.82;102195.41;5093037;28;20415;-76
2022/07/22 09:10:45;;;;;;;4.50;1.15;;;;;;;32.54;26.10;102185.97;5115741;28;20019;-76
2022/07/22 09:13:10;;;;;;;2.70;1.08;;;;;;;33.04;26.58;102179.19;5115799;28;20494;-77
2022/07/22 09:15:46;;;;;;;4.40;1.00;;;;;;;31.51;29.46;102178.84;5114735;28;20031;-76
2022/07/22 09:18:12;;;;;;;4.25;1.08;;;;;;;33.11;27.97;102180.38;5097137;28;20024;-77
2022/07/22 09:20:38;;;;;;;4.65;1.02;;;;;;;33.11;26.57;102174.94;5097203;28;20023;-77
2022/07/22 09:23:21;;;;;;;3.15;1.10;;;;;;;33.28;26.24;102171.69;5114698;28;20027;-77
2022/07/22 09:25:47;;;;;;;4.45;1.25;;;;;;;32.06;27.45;102173.63;5097423;28;20020;-76
2022/07/22 09:28:16;;;;;;;2.55;0.85;;;;;;;31.39;28.89;102180.66;5097004;28;20027;-77
2022/07/22 09:30:51;;;;;;;1.08;0.88;;;;;;;32.46;26.38;102180.34;5096351;28;20035;-77
2022/07/22 09:33:17;;;;;;;2.47;1.00;;;;;;;33.54;27.18;102171.28;5097082;28;20016;-77
2022/07/22 09:35:44;;;;;;;6.32;1.10;;;;;;;33.38;25.68;102176.31;5096266;28;20031;-76
2022/07/22 09:38:12;;;;;;;2.22;0.90;;;;;;;33.13;24.54;102181.09;5096498;28;20023;-76
2022/07/22 09:40:40;;;;;;;4.20;1.20;;;;;;;33.38;24.65;102181.72;5096622;28;20015;-75
2022/07/22 09:43:17;;;;;;;6.03;1.20;;;;;;;32.91;26.00;102179.38;5096122;28;20066;-76
2022/07/22 09:45:48;;;;;;;3.97;0.90;;;;;;;33.60;25.49;102176.13;5096857;28;20034;-76
2022/07/22 09:48:15;;;;;;;4.03;1.10;;;;;;;33.09;25.56;102193.19;5096820;28;20020;-76
2022/07/22 09:50:41;;;;;;;5.85;1.83;;;;;;;32.63;27.07;102187.06;5095810;28;20024;-77
2022/07/22 09:53:06;;;;;;;3.58;0.95;;;;;;;34.82;23.31;102183.41;5096693;28;20387;-76
2022/07/22 09:55:33;;;;;;;4.85;0.95;;;;;;;34.32;24.08;102182.47;5114807;28;20055;-75
2022/07/22 09:57:59;;;;;;;3.38;1.10;;;;;;;33.95;24.25;102196.59;5096094;28;20500;-76
2022/07/22 10:00:26;;;;;;;4.35;1.00;;;;;;;33.82;24.79;102201.38;5096276;28;20111;-76
2022/07/22 10:02:57;;;;;;;4.28;1.08;;;;;;;33.24;25.33;102196.47;5096272;28;20015;-76
2022/07/22 10:05:25;;;;;;;2.05;0.73;;;;;;;33.39;25.92;102183.44;5114104;28;20020;-76
2022/07/22 10:07:52;;;;;;;1.05;0.85;;;;;;;31.81;25.90;102196.38;5096240;28;20023;-76
2022/07/22 10:10:21;;;;;;;2.55;0.90;;;;;;;32.94;24.23;102190.78;5096080;28;20490;-76
2022/07/22 10:12:51;;;;;;;3.40;1.33;;;;;;;32.59;26.29;102201.81;5095447;28;20047;-76
2022/07/22 10:15:18;;;;;;;4.80;0.88;;;;;;;33.74;25.30;102187.63;5096123;28;20019;-76
2022/07/22 10:17:48;;;;;;;2.33;0.85;;;;;;;31.78;26.66;102186.66;5096103;28;20029;-76
2022/07/22 10:20:17;;;;;;;2.92;0.90;;;;;;;33.21;26.72;102189.44;5094804;28;20031;-76
2022/07/22 10:22:42;;;;;;;2.83;0.80;;;;;;;31.35;25.75;102195.38;5095891;28;20024;-76
2022/07/22 10:25:10;;;;;;;1.10;0.90;;;;;;;31.37;26.71;102188.03;5095167;28;20028;-77
2022/07/22 10:27:46;;;;;;;2.47;1.08;;;;;;;32.16;26.97;102195.38;5114328;28;20084;-76
2022/07/22 10:30:18;;;;;;;2.17;1.10;;;;;;;30.29;29.06;102196.94;5095659;28;20023;-76
2022/07/22 10:32:43;;;;;;;4.60;1.10;;;;;;;32.14;26.26;102195.53;5095017;28;20024;-76
2022/07/22 10:35:09;;;;;;;3.10;1.30;;;;;;;33.88;24.20;102195.44;5095678;28;20528;-76
2022/07/22 10:37:34;;;;;;;1.85;0.93;;;;;;;30.32;28.27;102201.22;5095686;28;20043;-76
2022/07/22 10:40:28;;;;;;;2.65;0.90;;;;;;;30.09;29.27;102194.81;5095214;28;20403;-76
2022/07/22 10:42:56;;;;;;;6.72;0.98;;;;;;;30.18;28.66;102198.69;5068828;28;20040;-76
2022/07/22 10:45:26;;;;;;;5.25;1.00;;;;;;;30.52;29.29;102199.78;5072046;28;20059;-76
2022/07/22 10:47:55;;;;;;;3.25;1.20;;;;;;;31.59;27.60;102192.66;5072627;28;20024;-76
2022/07/22 10:50:37;;;;;;;4.85;1.27;;;;;;;32.67;28.01;102182.25;5073137;28;20365;-76
2022/07/22 10:53:03;;;;;;;3.60;1.13;;;;;;;32.69;25.36;102183.00;5071156;28;20028;-76
2022/07/22 10:55:28;;;;;;;3.50;0.95;;;;;;;30.76;27.44;102180.06;5071809;28;20431;-77
2022/07/22 10:57:54;;;;;;;4.38;1.00;;;;;;;33.02;26.10;102173.91;5071657;28;20020;-77
2022/07/22 11:00:20;;;;;;;3.22;1.10;;;;;;;32.07;25.49;102175.34;5070828;28;20410;-76
2022/07/22 11:02:45;;;;;;;2.55;1.00;;;;;;;33.27;26.27;102175.38;5071783;28;20118;-76
2022/07/22 11:05:11;;;;;;;2.88;1.08;;;;;;;32.24;25.19;102170.44;5071263;28;20073;-76
2022/07/22 11:07:46;;;;;;;3.50;0.93;;;;;;;32.53;25.29;102154.50;5070716;28;20032;-76
2022/07/22 11:10:17;;;;;;;5.63;1.70;;;;;;;33.48;24.74;102153.69;5071346;28;20109;-76
2022/07/22 11:12:44;;;;;;;3.47;1.30;;;;;;;32.78;24.81;102155.16;5072732;28;20381;-76
2022/07/22 11:15:09;;;;;;;3.45;1.27;;;;;;;34.05;23.66;102153.25;5072171;28;20020;-77
2022/07/22 11:17:37;;;;;;;2.15;1.20;;;;;;;34.77;24.40;102147.63;5072769;28;20510;-77
2022/07/22 11:20:11;;;;;;;3.78;0.95;;;;;;;35.77;24.22;102156.34;5071345;28;20025;-76